sensor_id;sensor_type;location;lat;lon;timestamp;temperature;humidity
56861;DHT22;42744;51.094;3.490;2024-03-23T00:53:53;7.40;99.90
56861;DHT22;42744;51.094;3.490;2024-03-23T00:56:18;7.40;99.90
56861;DHT22;42744;51.094;3.490;2024-03-23T00:58:44;7.40;99.90
56861;DHT22;42744;51.094;3.490;2024-03-23T01:01:10;7.40;99.90
56861;DHT22;42744;51.094;3.490;2024-03-23T01:03:36;7.30;99.90
56861;DHT22;42744;51.094;3.490;2024-03-23T01:06:03;7.30;99.90
56861;DHT22;42744;51.094;3.490;2024-03-23T01:08:32;7.30;99.90
56861;DHT22;42744;51.094;3.490;2024-03-23T01:10:59;7.30;99.90
56861;DHT22;42744;51.094;3.490;2024-03-23T01:13:26;7.30;99.90
56861;DHT22;42744;51.094;3.490;2024-03-23T01:15:54;7.20;99.90
56861;DHT22;42744;51.094;3.490;2024-03-23T01:18:20;7.20;99.90
56861;DHT22;42744;51.094;3.490;2024-03-23T01:20:47;7.20;99.90
56861;DHT22;42744;51.094;3.490;2024-03-23T01:23:13;7.10;99.90
56861;DHT22;42744;51.094;3.490;2024-03-23T01:25:39;7.00;99.90
56861;DHT22;42744;51.094;3.490;2024-03-23T01:28:06;7.00;99.90
56861;DHT22;42744;51.094;3.490;2024-03-23T01:30:35;6.90;99.90
56861;DHT22;42744;51.094;3.490;2024-03-23T01:33:02;6.90;99.90
56861;DHT22;42744;51.094;3.490;2024-03-23T01:35:30;6.80;99.90
56861;DHT22;42744;51.094;3.490;2024-03-23T01:37:57;6.80;99.90
56861;DHT22;42744;51.094;3.490;2024-03-23T01:40:22;6.70;99.90
56861;DHT22;42744;51.094;3.490;2024-03-23T01:43:24;6.70;99.90
56861;DHT22;42744;51.094;3.490;2024-03-23T01:45:54;6.70;99.90
56861;DHT22;42744;51.094;3.490;2024-03-23T01:48:20;6.60;99.90
56861;DHT22;42744;51.094;3.490;2024-03-23T01:50:46;6.60;99.90
56861;DHT22;42744;51.094;3.490;2024-03-23T01:53:14;6.50;99.90
56861;DHT22;42744;51.094;3.490;2024-03-23T01:55:43;6.50;99.90
56861;DHT22;42744;51.094;3.490;2024-03-23T01:58:09;6.50;99.90
56861;DHT22;42744;51.094;3.490;2024-03-23T02:00:35;6.50;99.90
56861;DHT22;42744;51.094;3.490;2024-03-23T02:03:02;6.50;99.90
56861;DHT22;42744;51.094;3.490;2024-03-23T02:05:28;6.50;99.90
56861;DHT22;42744;51.094;3.490;2024-03-23T02:07:54;6.50;99.90
56861;DHT22;42744;51.094;3.490;2024-03-23T02:10:20;6.50;99.90
56861;DHT22;42744;51.094;3.490;2024-03-23T02:12:46;6.40;99.90
56861;DHT22;42744;51.094;3.490;2024-03-23T02:15:12;6.50;99.90
56861;DHT22;42744;51.094;3.490;2024-03-23T02:17:38;6.50;99.90
56861;DHT22;42744;51.094;3.490;2024-03-23T02:20:04;6.40;99.90
56861;DHT22;42744;51.094;3.490;2024-03-23T02:22:38;6.40;99.90
56861;DHT22;42744;51.094;3.490;2024-03-23T02:25:05;6.40;99.90
56861;DHT22;42744;51.094;3.490;2024-03-23T02:27:31;6.40;99.90
56861;DHT22;42744;51.094;3.490;2024-03-23T02:29:57;6.40;99.90
56861;DHT22;42744;51.094;3.490;2024-03-23T02:32:23;6.40;99.90
56861;DHT22;42744;51.094;3.490;2024-03-23T02:34:49;6.40;99.90
56861;DHT22;42744;51.094;3.490;2024-03-23T02:37:15;6.40;99.90
56861;DHT22;42744;51.094;3.490;2024-03-23T02:39:41;6.40;99.90
56861;DHT22;42744;51.094;3.490;2024-03-23T02:42:07;6.40;99.90
56861;DHT22;42744;51.094;3.490;2024-03-23T02:44:33;6.30;99.90
56861;DHT22;42744;51.094;3.490;2024-03-23T02:46:59;6.30;99.90
56861;DHT22;42744;51.094;3.490;2024-03-23T02:49:25;6.20;99.90
56861;DHT22;42744;51.094;3.490;2024-03-23T02:51:51;6.20;99.90
56861;DHT22;42744;51.094;3.490;2024-03-23T02:54:17;6.10;99.90
56861;DHT22;42744;51.094;3.490;2024-03-23T02:56:43;6.10;99.90
56861;DHT22;42744;51.094;3.490;2024-03-23T02:59:12;6.00;99.90
56861;DHT22;42744;51.094;3.490;2024-03-23T03:01:38;6.00;99.90
56861;DHT22;42744;51.094;3.490;2024-03-23T03:04:04;5.90;99.90
56861;DHT22;42744;51.094;3.490;2024-03-23T03:06:31;5.90;99.90
56861;DHT22;42744;51.094;3.490;2024-03-23T03:08:57;5.90;99.90
56861;DHT22;42744;51.094;3.490;2024-03-23T03:11:23;5.90;99.90
56861;DHT22;42744;51.094;3.490;2024-03-23T03:13:49;5.90;99.90
56861;DHT22;42744;51.094;3.490;2024-03-23T03:16:15;5.90;99.90
56861;DHT22;42744;51.094;3.490;2024-03-23T03:18:41;5.80;99.90
56861;DHT22;42744;51.094;3.490;2024-03-23T03:21:07;5.90;99.90
56861;DHT22;42744;51.094;3.490;2024-03-23T03:23:39;5.90;99.90
56861;DHT22;42744;51.094;3.490;2024-03-23T03:26:05;5.90;99.90
56861;DHT22;42744;51.094;3.490;2024-03-23T03:28:32;5.90;99.90
56861;DHT22;42744;51.094;3.490;2024-03-23T03:31:01;5.90;99.90
56861;DHT22;42744;51.094;3.490;2024-03-23T03:33:27;5.90;99.90
56861;DHT22;42744;51.094;3.490;2024-03-23T03:35:54;5.90;99.90
56861;DHT22;42744;51.094;3.490;2024-03-23T03:38:20;5.90;99.90
56861;DHT22;42744;51.094;3.490;2024-03-23T03:40:46;5.90;99.90
56861;DHT22;42744;51.094;3.490;2024-03-23T03:43:12;5.90;99.90
56861;DHT22;42744;51.094;3.490;2024-03-23T03:45:39;6.00;99.90
56861;DHT22;42744;51.094;3.490;2024-03-23T03:48:05;5.90;99.90
56861;DHT22;42744;51.094;3.490;2024-03-23T03:50:31;5.90;99.90
56861;DHT22;42744;51.094;3.490;2024-03-23T03:52:57;5.90;99.90
56861;DHT22;42744;51.094;3.490;2024-03-23T03:55:23;5.90;99.90
56861;DHT22;42744;51.094;3.490;2024-03-23T03:57:49;5.80;99.90
56861;DHT22;42744;51.094;3.490;2024-03-23T04:00:15;5.80;99.90
56861;DHT22;42744;51.094;3.490;2024-03-23T04:02:41;5.90;99.90
56861;DHT22;42744;51.094;3.490;2024-03-23T04:05:07;5.90;99.90
56861;DHT22;42744;51.094;3.490;2024-03-23T04:07:34;5.90;99.90
56861;DHT22;42744;51.094;3.490;2024-03-23T04:10:00;5.90;99.90
56861;DHT22;42744;51.094;3.490;2024-03-23T04:12:26;5.90;99.90
56861;DHT22;42744;51.094;3.490;2024-03-23T04:14:51;5.90;99.90
56861;DHT22;42744;51.094;3.490;2024-03-23T04:17:18;5.90;99.90
56861;DHT22;42744;51.094;3.490;2024-03-23T04:19:44;5.90;99.90
56861;DHT22;42744;51.094;3.490;2024-03-23T04:22:10;5.90;99.90
56861;DHT22;42744;51.094;3.490;2024-03-23T04:24:36;5.90;99.90
56861;DHT22;42744;51.094;3.490;2024-03-23T04:27:02;5.90;99.90
56861;DHT22;42744;51.094;3.490;2024-03-23T04:29:28;5.90;99.90
56861;DHT22;42744;51.094;3.490;2024-03-23T04:31:54;5.90;99.90
56861;DHT22;42744;51.094;3.490;2024-03-23T04:34:21;5.90;99.90
56861;DHT22;42744;51.094;3.490;2024-03-23T04:36:48;5.90;99.90
56861;DHT22;42744;51.094;3.490;2024-03-23T04:39:14;6.00;99.90
56861;DHT22;42744;51.094;3.490;2024-03-23T04:41:40;6.00;99.90
56861;DHT22;42744;51.094;3.490;2024-03-23T04:44:06;6.00;99.90
56861;DHT22;42744;51.094;3.490;2024-03-23T04:46:33;6.00;99.90
56861;DHT22;42744;51.094;3.490;2024-03-23T04:48:59;6.00;99.90
56861;DHT22;42744;51.094;3.490;2024-03-23T04:51:25;6.00;99.90
56861;DHT22;42744;51.094;3.490;2024-03-23T04:53:52;6.10;99.90
56861;DHT22;42744;51.094;3.490;2024-03-23T04:56:18;6.10;99.90
56861;DHT22;42744;51.094;3.490;2024-03-23T04:58:44;6.10;99.90
56861;DHT22;42744;51.094;3.490;2024-03-23T05:01:11;6.20;99.90
56861;DHT22;42744;51.094;3.490;2024-03-23T05:03:37;6.20;99.90
56861;DHT22;42744;51.094;3.490;2024-03-23T05:06:03;6.20;99.90
56861;DHT22;42744;51.094;3.490;2024-03-23T05:08:31;6.30;99.90
56861;DHT22;42744;51.094;3.490;2024-03-23T05:10:57;6.30;99.90
56861;DHT22;42744;51.094;3.490;2024-03-23T05:13:23;6.30;99.90
56861;DHT22;42744;51.094;3.490;2024-03-23T05:15:55;6.20;99.90
56861;DHT22;42744;51.094;3.490;2024-03-23T05:18:21;6.20;99.90
56861;DHT22;42744;51.094;3.490;2024-03-23T05:20:47;6.20;99.90
56861;DHT22;42744;51.094;3.490;2024-03-23T05:23:13;6.20;99.90
56861;DHT22;42744;51.094;3.490;2024-03-23T05:25:39;6.30;99.90
56861;DHT22;42744;51.094;3.490;2024-03-23T05:28:05;6.30;99.90
56861;DHT22;42744;51.094;3.490;2024-03-23T05:30:32;6.20;99.90
56861;DHT22;42744;51.094;3.490;2024-03-23T05:32:58;6.30;99.90
56861;DHT22;42744;51.094;3.490;2024-03-23T05:35:24;6.30;99.90
56861;DHT22;42744;51.094;3.490;2024-03-23T05:37:50;6.30;99.90
56861;DHT22;42744;51.094;3.490;2024-03-23T05:40:16;6.30;99.90
56861;DHT22;42744;51.094;3.490;2024-03-23T05:42:42;6.30;99.90
56861;DHT22;42744;51.094;3.490;2024-03-23T05:45:09;6.30;99.90
56861;DHT22;42744;51.094;3.490;2024-03-23T05:47:34;6.30;99.90
56861;DHT22;42744;51.094;3.490;2024-03-23T05:50:00;6.30;99.90
56861;DHT22;42744;51.094;3.490;2024-03-23T05:52:27;6.40;99.90
56861;DHT22;42744;51.094;3.490;2024-03-23T05:54:53;6.40;99.90
56861;DHT22;42744;51.094;3.490;2024-03-23T05:57:19;6.40;99.90
56861;DHT22;42744;51.094;3.490;2024-03-23T05:59:46;6.30;99.90
56861;DHT22;42744;51.094;3.490;2024-03-23T06:02:12;6.30;99.90
56861;DHT22;42744;51.094;3.490;2024-03-23T06:04:38;6.30;99.90
56861;DHT22;42744;51.094;3.490;2024-03-23T06:07:04;6.20;99.90
56861;DHT22;42744;51.094;3.490;2024-03-23T06:09:32;6.20;99.90
56861;DHT22;42744;51.094;3.490;2024-03-23T06:11:58;6.10;99.90
56861;DHT22;42744;51.094;3.490;2024-03-23T06:14:24;6.10;99.90
56861;DHT22;42744;51.094;3.490;2024-03-23T06:16:50;6.10;99.90
56861;DHT22;42744;51.094;3.490;2024-03-23T06:19:16;6.10;99.90
56861;DHT22;42744;51.094;3.490;2024-03-23T06:21:45;6.20;99.90
56861;DHT22;42744;51.094;3.490;2024-03-23T06:24:11;6.10;99.90
56861;DHT22;42744;51.094;3.490;2024-03-23T06:26:38;6.10;99.90
56861;DHT22;42744;51.094;3.490;2024-03-23T06:29:04;6.10;99.90
56861;DHT22;42744;51.094;3.490;2024-03-23T06:31:31;6.10;99.90
56861;DHT22;42744;51.094;3.490;2024-03-23T06:33:57;6.10;99.90
56861;DHT22;42744;51.094;3.490;2024-03-23T06:36:23;6.20;99.90
56861;DHT22;42744;51.094;3.490;2024-03-23T06:38:49;6.20;99.90
56861;DHT22;42744;51.094;3.490;2024-03-23T06:41:15;6.20;99.90
56861;DHT22;42744;51.094;3.490;2024-03-23T06:43:41;6.20;99.90
56861;DHT22;42744;51.094;3.490;2024-03-23T06:46:07;6.20;99.90
56861;DHT22;42744;51.094;3.490;2024-03-23T06:48:33;6.20;99.90
56861;DHT22;42744;51.094;3.490;2024-03-23T06:50:59;6.30;99.90
56861;DHT22;42744;51.094;3.490;2024-03-23T06:53:25;6.30;99.90
56861;DHT22;42744;51.094;3.490;2024-03-23T06:55:52;6.30;99.90
56861;DHT22;42744;51.094;3.490;2024-03-23T06:58:23;6.30;99.90
56861;DHT22;42744;51.094;3.490;2024-03-23T07:00:49;6.20;99.90
56861;DHT22;42744;51.094;3.490;2024-03-23T07:03:18;6.30;99.90
56861;DHT22;42744;51.094;3.490;2024-03-23T07:05:44;6.30;99.90
56861;DHT22;42744;51.094;3.490;2024-03-23T07:08:11;6.50;99.90
56861;DHT22;42744;51.094;3.490;2024-03-23T07:10:40;6.60;99.90
56861;DHT22;42744;51.094;3.490;2024-03-23T07:13:06;6.70;99.90
56861;DHT22;42744;51.094;3.490;2024-03-23T07:15:33;6.80;99.90
56861;DHT22;42744;51.094;3.490;2024-03-23T07:17:59;6.80;99.90
56861;DHT22;42744;51.094;3.490;2024-03-23T07:20:25;6.80;99.90
56861;DHT22;42744;51.094;3.490;2024-03-23T07:22:51;6.70;99.90
56861;DHT22;42744;51.094;3.490;2024-03-23T07:25:17;6.70;99.90
56861;DHT22;42744;51.094;3.490;2024-03-23T07:27:43;6.60;99.90
56861;DHT22;42744;51.094;3.490;2024-03-23T07:30:09;6.50;99.90
56861;DHT22;42744;51.094;3.490;2024-03-23T07:32:35;6.40;99.90
56861;DHT22;42744;51.094;3.490;2024-03-23T07:35:01;6.40;99.90
56861;DHT22;42744;51.094;3.490;2024-03-23T07:37:28;6.40;99.90
56861;DHT22;42744;51.094;3.490;2024-03-23T07:39:54;6.50;99.90
56861;DHT22;42744;51.094;3.490;2024-03-23T07:42:20;6.50;99.90
56861;DHT22;42744;51.094;3.490;2024-03-23T07:44:46;6.50;99.90
56861;DHT22;42744;51.094;3.490;2024-03-23T07:47:12;6.60;99.90
56861;DHT22;42744;51.094;3.490;2024-03-23T07:49:38;6.60;99.90
56861;DHT22;42744;51.094;3.490;2024-03-23T07:52:05;6.70;99.90
56861;DHT22;42744;51.094;3.490;2024-03-23T07:54:32;6.70;99.90
56861;DHT22;42744;51.094;3.490;2024-03-23T07:56:57;6.80;99.90
56861;DHT22;42744;51.094;3.490;2024-03-23T07:59:23;6.80;99.90
56861;DHT22;42744;51.094;3.490;2024-03-23T08:01:49;6.90;99.90
56861;DHT22;42744;51.094;3.490;2024-03-23T08:04:15;6.90;99.90
56861;DHT22;42744;51.094;3.490;2024-03-23T08:06:41;7.00;99.90
56861;DHT22;42744;51.094;3.490;2024-03-23T08:09:07;7.20;99.90
56861;DHT22;42744;51.094;3.490;2024-03-23T08:11:33;7.40;99.90
56861;DHT22;42744;51.094;3.490;2024-03-23T08:14:02;7.70;99.90
56861;DHT22;42744;51.094;3.490;2024-03-23T08:16:28;7.80;99.90
56861;DHT22;42744;51.094;3.490;2024-03-23T08:18:54;7.70;99.90
56861;DHT22;42744;51.094;3.490;2024-03-23T08:21:26;7.50;99.90
56861;DHT22;42744;51.094;3.490;2024-03-23T08:23:55;7.40;99.90
56861;DHT22;42744;51.094;3.490;2024-03-23T08:26:21;7.20;99.90
56861;DHT22;42744;51.094;3.490;2024-03-23T08:28:47;7.30;99.90
56861;DHT22;42744;51.094;3.490;2024-03-23T08:31:13;7.40;99.90
56861;DHT22;42744;51.094;3.490;2024-03-23T08:33:42;7.50;99.90
56861;DHT22;42744;51.094;3.490;2024-03-23T08:36:10;7.60;99.90
56861;DHT22;42744;51.094;3.490;2024-03-23T08:38:38;7.70;99.90
56861;DHT22;42744;51.094;3.490;2024-03-23T08:41:06;7.70;99.90
56861;DHT22;42744;51.094;3.490;2024-03-23T08:43:37;7.70;99.90
56861;DHT22;42744;51.094;3.490;2024-03-23T08:46:04;7.70;99.90
56861;DHT22;42744;51.094;3.490;2024-03-23T08:48:31;7.80;99.90
56861;DHT22;42744;51.094;3.490;2024-03-23T08:51:07;7.90;99.90
56861;DHT22;42744;51.094;3.490;2024-03-23T08:53:38;8.10;99.90
56861;DHT22;42744;51.094;3.490;2024-03-23T08:56:04;8.30;99.90
56861;DHT22;42744;51.094;3.490;2024-03-23T08:58:32;8.30;99.90
56861;DHT22;42744;51.094;3.490;2024-03-23T09:01:12;8.60;99.90
56861;DHT22;42744;51.094;3.490;2024-03-23T09:03:41;8.80;99.90
56861;DHT22;42744;51.094;3.490;2024-03-23T09:06:12;8.90;99.90
56861;DHT22;42744;51.094;3.490;2024-03-23T09:08:39;9.00;99.90
56861;DHT22;42744;51.094;3.490;2024-03-23T09:11:15;8.90;99.90
56861;DHT22;42744;51.094;3.490;2024-03-23T09:13:41;8.90;99.90
56861;DHT22;42744;51.094;3.490;2024-03-23T09:16:07;8.70;99.90
56861;DHT22;42744;51.094;3.490;2024-03-23T09:18:36;8.80;99.90
56861;DHT22;42744;51.094;3.490;2024-03-23T09:21:11;9.10;99.90
56861;DHT22;42744;51.094;3.490;2024-03-23T09:23:38;9.20;99.90
56861;DHT22;42744;51.094;3.490;2024-03-23T09:26:05;9.30;99.90
56861;DHT22;42744;51.094;3.490;2024-03-23T09:28:33;9.40;99.90
56861;DHT22;42744;51.094;3.490;2024-03-23T09:31:06;9.50;99.90
56861;DHT22;42744;51.094;3.490;2024-03-23T09:33:33;9.60;99.90
56861;DHT22;42744;51.094;3.490;2024-03-23T09:36:03;9.80;99.90
56861;DHT22;42744;51.094;3.490;2024-03-23T09:38:29;10.00;99.90
56861;DHT22;42744;51.094;3.490;2024-03-23T09:40:57;10.00;99.90
56861;DHT22;42744;51.094;3.490;2024-03-23T09:43:23;9.80;99.90
56861;DHT22;42744;51.094;3.490;2024-03-23T09:45:49;9.80;99.90
56861;DHT22;42744;51.094;3.490;2024-03-23T09:48:15;9.70;99.90
56861;DHT22;42744;51.094;3.490;2024-03-23T09:50:43;9.40;99.90
56861;DHT22;42744;51.094;3.490;2024-03-23T09:53:11;9.30;99.90
56861;DHT22;42744;51.094;3.490;2024-03-23T09:55:38;9.30;99.90
56861;DHT22;42744;51.094;3.490;2024-03-23T09:58:05;9.60;99.90
56861;DHT22;42744;51.094;3.490;2024-03-23T10:00:35;10.00;99.90
56861;DHT22;42744;51.094;3.490;2024-03-23T10:03:02;10.30;99.90
56861;DHT22;42744;51.094;3.490;2024-03-23T10:05:28;10.00;99.90
56861;DHT22;42744;51.094;3.490;2024-03-23T10:07:55;9.70;99.90
56861;DHT22;42744;51.094;3.490;2024-03-23T10:10:21;9.50;99.90
56861;DHT22;42744;51.094;3.490;2024-03-23T10:12:48;9.20;99.90
56861;DHT22;42744;51.094;3.490;2024-03-23T10:15:19;9.20;99.90
56861;DHT22;42744;51.094;3.490;2024-03-23T10:17:46;9.30;99.90
56861;DHT22;42744;51.094;3.490;2024-03-23T10:20:12;9.80;99.90
56861;DHT22;42744;51.094;3.490;2024-03-23T10:22:39;10.00;99.90
56861;DHT22;42744;51.094;3.490;2024-03-23T10:25:09;9.90;99.90
56861;DHT22;42744;51.094;3.490;2024-03-23T10:27:35;9.90;99.90
56861;DHT22;42744;51.094;3.490;2024-03-23T10:30:12;9.70;99.90
56861;DHT22;42744;51.094;3.490;2024-03-23T10:32:38;9.60;99.90
56861;DHT22;42744;51.094;3.490;2024-03-23T10:35:15;9.90;99.90
56861;DHT22;42744;51.094;3.490;2024-03-23T10:37:42;10.30;99.90
56861;DHT22;42744;51.094;3.490;2024-03-23T10:40:10;11.10;99.90
56861;DHT22;42744;51.094;3.490;2024-03-23T10:42:37;11.50;99.90
56861;DHT22;42744;51.094;3.490;2024-03-23T10:45:07;11.20;99.90
56861;DHT22;42744;51.094;3.490;2024-03-23T10:47:35;11.20;99.90
56861;DHT22;42744;51.094;3.490;2024-03-23T10:50:03;11.70;99.90
56861;DHT22;42744;51.094;3.490;2024-03-23T10:52:34;12.20;99.90
56861;DHT22;42744;51.094;3.490;2024-03-23T10:55:06;12.50;99.90
56861;DHT22;42744;51.094;3.490;2024-03-23T10:57:52;13.00;99.90
56861;DHT22;42744;51.094;3.490;2024-03-23T11:00:19;13.20;99.90
56861;DHT22;42744;51.094;3.490;2024-03-23T11:02:50;13.20;99.90
56861;DHT22;42744;51.094;3.490;2024-03-23T11:07:52;13.80;99.90
56861;DHT22;42744;51.094;3.490;2024-03-23T11:10:31;14.20;99.90
56861;DHT22;42744;51.094;3.490;2024-03-23T11:13:21;14.50;99.90
56861;DHT22;42744;51.094;3.490;2024-03-23T11:15:47;14.50;99.90
56861;DHT22;42744;51.094;3.490;2024-03-23T11:18:20;13.80;99.90
56861;DHT22;42744;51.094;3.490;2024-03-23T11:20:46;13.40;99.90
56861;DHT22;42744;51.094;3.490;2024-03-23T11:23:28;13.10;99.90
56861;DHT22;42744;51.094;3.490;2024-03-23T11:25:54;13.10;99.90
56861;DHT22;42744;51.094;3.490;2024-03-23T11:28:20;13.60;99.90
56861;DHT22;42744;51.094;3.490;2024-03-23T11:30:47;14.10;99.90
56861;DHT22;42744;51.094;3.490;2024-03-23T11:33:13;14.50;99.90
56861;DHT22;42744;51.094;3.490;2024-03-23T11:35:40;14.30;99.90
56861;DHT22;42744;51.094;3.490;2024-03-23T11:38:16;14.20;99.90
56861;DHT22;42744;51.094;3.490;2024-03-23T11:40:48;14.20;99.90
56861;DHT22;42744;51.094;3.490;2024-03-23T11:43:16;14.40;99.90
56861;DHT22;42744;51.094;3.490;2024-03-23T11:45:45;14.90;99.90
56861;DHT22;42744;51.094;3.490;2024-03-23T11:48:13;15.30;99.90
56861;DHT22;42744;51.094;3.490;2024-03-23T11:50:41;15.30;99.90
56861;DHT22;42744;51.094;3.490;2024-03-23T11:55:47;15.40;99.90
56861;DHT22;42744;51.094;3.490;2024-03-23T11:58:14;15.10;99.90
56861;DHT22;42744;51.094;3.490;2024-03-23T12:00:40;14.80;99.90
56861;DHT22;42744;51.094;3.490;2024-03-23T12:03:07;14.70;99.90
56861;DHT22;42744;51.094;3.490;2024-03-23T12:05:33;14.70;99.90
56861;DHT22;42744;51.094;3.490;2024-03-23T12:10:46;14.00;99.90
56861;DHT22;42744;51.094;3.490;2024-03-23T12:13:15;13.50;99.90
56861;DHT22;42744;51.094;3.490;2024-03-23T12:15:44;13.30;99.90
56861;DHT22;42744;51.094;3.490;2024-03-23T12:18:10;13.30;99.90
56861;DHT22;42744;51.094;3.490;2024-03-23T12:20:36;13.10;99.90
56861;DHT22;42744;51.094;3.490;2024-03-23T12:23:11;12.90;99.90
56861;DHT22;42744;51.094;3.490;2024-03-23T12:25:39;12.70;99.90
56861;DHT22;42744;51.094;3.490;2024-03-23T12:28:06;12.60;99.90
56861;DHT22;42744;51.094;3.490;2024-03-23T12:30:40;12.50;99.90
56861;DHT22;42744;51.094;3.490;2024-03-23T12:33:07;12.30;99.90
56861;DHT22;42744;51.094;3.490;2024-03-23T12:35:33;12.60;99.90
56861;DHT22;42744;51.094;3.490;2024-03-23T12:38:00;13.30;99.90
56861;DHT22;42744;51.094;3.490;2024-03-23T12:40:26;13.80;99.90
56861;DHT22;42744;51.094;3.490;2024-03-23T12:42:54;14.10;99.90
56861;DHT22;42744;51.094;3.490;2024-03-23T12:45:20;14.60;99.90
56861;DHT22;42744;51.094;3.490;2024-03-23T12:47:46;14.40;99.90
56861;DHT22;42744;51.094;3.490;2024-03-23T12:50:12;13.70;99.90
56861;DHT22;42744;51.094;3.490;2024-03-23T12:52:38;13.40;99.90
56861;DHT22;42744;51.094;3.490;2024-03-23T12:55:04;13.80;99.90
56861;DHT22;42744;51.094;3.490;2024-03-23T12:57:33;14.20;99.90
56861;DHT22;42744;51.094;3.490;2024-03-23T12:59:59;14.50;99.90
56861;DHT22;42744;51.094;3.490;2024-03-23T13:02:26;14.90;99.90
56861;DHT22;42744;51.094;3.490;2024-03-23T13:04:52;15.20;99.90
56861;DHT22;42744;51.094;3.490;2024-03-23T13:07:19;15.40;99.90
56861;DHT22;42744;51.094;3.490;2024-03-23T13:09:45;15.00;99.90
56861;DHT22;42744;51.094;3.490;2024-03-23T13:12:12;14.60;99.90
56861;DHT22;42744;51.094;3.490;2024-03-23T13:14:39;14.20;99.90
56861;DHT22;42744;51.094;3.490;2024-03-23T13:17:06;13.60;99.90
56861;DHT22;42744;51.094;3.490;2024-03-23T13:19:32;13.20;99.90
56861;DHT22;42744;51.094;3.490;2024-03-23T13:21:58;13.20;99.90
56861;DHT22;42744;51.094;3.490;2024-03-23T13:24:29;13.60;99.90
56861;DHT22;42744;51.094;3.490;2024-03-23T13:26:56;13.90;99.90
56861;DHT22;42744;51.094;3.490;2024-03-23T13:29:23;13.90;99.90
56861;DHT22;42744;51.094;3.490;2024-03-23T13:31:50;13.80;99.90
56861;DHT22;42744;51.094;3.490;2024-03-23T13:34:17;13.90;99.90
56861;DHT22;42744;51.094;3.490;2024-03-23T13:36:44;13.80;99.90
56861;DHT22;42744;51.094;3.490;2024-03-23T13:39:11;13.60;99.90
56861;DHT22;42744;51.094;3.490;2024-03-23T13:41:42;13.70;99.90
56861;DHT22;42744;51.094;3.490;2024-03-23T13:44:09;14.00;99.90
56861;DHT22;42744;51.094;3.490;2024-03-23T13:46:36;14.70;99.90
56861;DHT22;42744;51.094;3.490;2024-03-23T13:49:03;15.10;99.90
56861;DHT22;42744;51.094;3.490;2024-03-23T13:51:29;15.00;99.90
56861;DHT22;42744;51.094;3.490;2024-03-23T13:53:55;15.20;99.90
56861;DHT22;42744;51.094;3.490;2024-03-23T13:56:29;15.10;99.90
56861;DHT22;42744;51.094;3.490;2024-03-23T13:58:58;14.70;99.90
56861;DHT22;42744;51.094;3.490;2024-03-23T14:01:24;14.20;99.90
56861;DHT22;42744;51.094;3.490;2024-03-23T14:03:50;13.80;99.90
56861;DHT22;42744;51.094;3.490;2024-03-23T14:06:16;13.40;99.90
56861;DHT22;42744;51.094;3.490;2024-03-23T14:08:42;13.00;99.90
56861;DHT22;42744;51.094;3.490;2024-03-23T14:11:09;12.70;99.90
56861;DHT22;42744;51.094;3.490;2024-03-23T14:13:36;12.40;99.90
56861;DHT22;42744;51.094;3.490;2024-03-23T14:16:02;12.30;99.90
56861;DHT22;42744;51.094;3.490;2024-03-23T14:18:28;12.40;99.90
56861;DHT22;42744;51.094;3.490;2024-03-23T14:20:59;12.50;99.90
56861;DHT22;42744;51.094;3.490;2024-03-23T14:23:26;12.40;99.90
56861;DHT22;42744;51.094;3.490;2024-03-23T14:25:53;12.30;99.90
56861;DHT22;42744;51.094;3.490;2024-03-23T14:28:20;12.10;99.90
56861;DHT22;42744;51.094;3.490;2024-03-23T14:30:47;11.90;99.90
56861;DHT22;42744;51.094;3.490;2024-03-23T14:33:13;11.70;99.90
56861;DHT22;42744;51.094;3.490;2024-03-23T14:35:39;11.40;99.90
56861;DHT22;42744;51.094;3.490;2024-03-23T14:38:05;11.20;99.90
56861;DHT22;42744;51.094;3.490;2024-03-23T14:40:31;10.90;99.90
56861;DHT22;42744;51.094;3.490;2024-03-23T14:42:57;10.70;99.90
56861;DHT22;42744;51.094;3.490;2024-03-23T14:45:23;10.50;99.90
56861;DHT22;42744;51.094;3.490;2024-03-23T14:47:51;10.30;99.90
56861;DHT22;42744;51.094;3.490;2024-03-23T14:50:17;10.40;99.90
56861;DHT22;42744;51.094;3.490;2024-03-23T14:52:46;10.70;99.90
56861;DHT22;42744;51.094;3.490;2024-03-23T14:55:12;11.10;99.90
56861;DHT22;42744;51.094;3.490;2024-03-23T14:57:39;11.40;99.90
56861;DHT22;42744;51.094;3.490;2024-03-23T15:00:08;11.70;99.90
56861;DHT22;42744;51.094;3.490;2024-03-23T15:02:37;11.70;99.90
56861;DHT22;42744;51.094;3.490;2024-03-23T15:05:03;11.70;99.90
56861;DHT22;42744;51.094;3.490;2024-03-23T15:07:33;11.50;99.90
56861;DHT22;42744;51.094;3.490;2024-03-23T15:09:59;11.30;99.90
56861;DHT22;42744;51.094;3.490;2024-03-23T15:12:25;11.10;99.90
56861;DHT22;42744;51.094;3.490;2024-03-23T15:14:51;10.90;99.90
56861;DHT22;42744;51.094;3.490;2024-03-23T15:17:17;10.80;99.90
56861;DHT22;42744;51.094;3.490;2024-03-23T15:19:44;10.80;99.90
56861;DHT22;42744;51.094;3.490;2024-03-23T15:22:10;10.80;99.90
56861;DHT22;42744;51.094;3.490;2024-03-23T15:24:45;10.60;99.90
56861;DHT22;42744;51.094;3.490;2024-03-23T15:27:12;10.30;99.90
56861;DHT22;42744;51.094;3.490;2024-03-23T15:29:45;9.70;99.90
56861;DHT22;42744;51.094;3.490;2024-03-23T15:32:11;9.20;99.90
56861;DHT22;42744;51.094;3.490;2024-03-23T15:34:38;8.80;99.90
56861;DHT22;42744;51.094;3.490;2024-03-23T15:37:03;8.70;99.90
56861;DHT22;42744;51.094;3.490;2024-03-23T15:39:30;8.70;99.90
56861;DHT22;42744;51.094;3.490;2024-03-23T15:41:56;8.80;99.90
56861;DHT22;42744;51.094;3.490;2024-03-23T15:44:21;8.90;99.90
56861;DHT22;42744;51.094;3.490;2024-03-23T15:46:47;8.90;99.90
56861;DHT22;42744;51.094;3.490;2024-03-23T15:49:13;8.80;99.90
56861;DHT22;42744;51.094;3.490;2024-03-23T15:51:40;8.60;99.90
56861;DHT22;42744;51.094;3.490;2024-03-23T15:54:09;8.30;99.90
56861;DHT22;42744;51.094;3.490;2024-03-23T15:56:35;8.10;99.90
56861;DHT22;42744;51.094;3.490;2024-03-23T15:59:01;8.00;99.90
56861;DHT22;42744;51.094;3.490;2024-03-23T16:01:33;7.90;99.90
56861;DHT22;42744;51.094;3.490;2024-03-23T16:04:01;7.90;99.90
56861;DHT22;42744;51.094;3.490;2024-03-23T16:06:27;7.90;99.90
56861;DHT22;42744;51.094;3.490;2024-03-23T16:08:53;7.90;99.90
56861;DHT22;42744;51.094;3.490;2024-03-23T16:11:19;7.90;99.90
56861;DHT22;42744;51.094;3.490;2024-03-23T16:13:45;7.80;99.90
56861;DHT22;42744;51.094;3.490;2024-03-23T16:16:12;7.70;99.90
56861;DHT22;42744;51.094;3.490;2024-03-23T16:18:38;7.80;99.90
56861;DHT22;42744;51.094;3.490;2024-03-23T16:21:09;7.60;99.90
56861;DHT22;42744;51.094;3.490;2024-03-23T16:23:36;7.40;99.90
56861;DHT22;42744;51.094;3.490;2024-03-23T16:26:07;7.30;99.90
56861;DHT22;42744;51.094;3.490;2024-03-23T16:28:34;7.20;99.90
56861;DHT22;42744;51.094;3.490;2024-03-23T16:31:02;7.20;99.90
56861;DHT22;42744;51.094;3.490;2024-03-23T16:33:29;7.20;99.90
56861;DHT22;42744;51.094;3.490;2024-03-23T16:38:26;7.10;99.90
56861;DHT22;42744;51.094;3.490;2024-03-23T16:40:58;7.10;99.90
56861;DHT22;42744;51.094;3.490;2024-03-23T16:43:25;7.00;99.90
56861;DHT22;42744;51.094;3.490;2024-03-23T16:45:59;7.00;99.90